sensor_id;sensor_type;location;lat;lon;timestamp;pressure;altitude;pressure_sealevel;temperature;humidity
20710;BME280;10516;51.518;9.864;2024-02-14T00:02:15;98949.88;;;5.10;82.03
20710;BME280;10516;51.518;9.864;2024-02-14T00:04:40;98963.38;;;4.83;83.47
20710;BME280;10516;51.518;9.864;2024-02-14T00:07:05;98967.63;;;4.97;84.02
20710;BME280;10516;51.518;9.864;2024-02-14T00:09:31;98938.63;;;4.71;83.58
20710;BME280;10516;51.518;9.864;2024-02-14T00:11:56;98902.66;;;4.63;83.34
20710;BME280;10516;51.518;9.864;2024-02-14T00:14:22;98915.03;;;4.76;83.50
20710;BME280;10516;51.518;9.864;2024-02-14T00:16:47;98910.81;;;4.62;84.04
20710;BME280;10516;51.518;9.864;2024-02-14T00:19:13;98936.94;;;4.83;84.40
20710;BME280;10516;51.518;9.864;2024-02-14T00:21:39;98913.19;;;4.76;84.18
20710;BME280;10516;51.518;9.864;2024-02-14T00:24:04;98902.88;;;4.62;84.20
20710;BME280;10516;51.518;9.864;2024-02-14T00:26:30;98931.66;;;4.83;84.23
20710;BME280;10516;51.518;9.864;2024-02-14T00:28:56;98874.84;;;4.61;84.20
20710;BME280;10516;51.518;9.864;2024-02-14T00:31:21;98902.75;;;4.88;83.81
20710;BME280;10516;51.518;9.864;2024-02-14T00:33:46;98915.31;;;4.99;83.55
20710;BME280;10516;51.518;9.864;2024-02-14T00:36:12;98932.91;;;5.18;83.59
20710;BME280;10516;51.518;9.864;2024-02-14T00:38:37;98883.88;;;4.84;83.46
20710;BME280;10516;51.518;9.864;2024-02-14T00:41:03;98931.13;;;5.12;83.75
20710;BME280;10516;51.518;9.864;2024-02-14T00:43:28;98929.94;;;5.08;83.61
20710;BME280;10516;51.518;9.864;2024-02-14T00:45:54;98931.53;;;5.09;84.52
20710;BME280;10516;51.518;9.864;2024-02-14T00:48:22;98932.81;;;5.06;83.67
20710;BME280;10516;51.518;9.864;2024-02-14T00:50:47;98855.69;;;4.72;84.22
20710;BME280;10516;51.518;9.864;2024-02-14T00:53:13;98922.84;;;5.02;84.67
20710;BME280;10516;51.518;9.864;2024-02-14T00:55:38;98927.28;;;5.08;84.58
20710;BME280;10516;51.518;9.864;2024-02-14T00:58:04;98922.47;;;4.92;84.88
20710;BME280;10516;51.518;9.864;2024-02-14T01:00:29;98901.34;;;4.85;84.71
20710;BME280;10516;51.518;9.864;2024-02-14T01:02:56;98917.88;;;5.18;84.64
20710;BME280;10516;51.518;9.864;2024-02-14T01:05:23;98887.31;;;5.22;83.52
20710;BME280;10516;51.518;9.864;2024-02-14T01:07:48;98882.25;;;4.83;84.04
20710;BME280;10516;51.518;9.864;2024-02-14T01:10:13;98902.72;;;5.32;83.47
20710;BME280;10516;51.518;9.864;2024-02-14T01:12:39;98908.44;;;5.29;83.97
20710;BME280;10516;51.518;9.864;2024-02-14T01:15:05;98912.59;;;5.50;83.57
20710;BME280;10516;51.518;9.864;2024-02-14T01:17:31;98885.06;;;5.26;82.70
20710;BME280;10516;51.518;9.864;2024-02-14T01:19:56;98877.69;;;4.97;84.72
20710;BME280;10516;51.518;9.864;2024-02-14T01:22:23;98851.03;;;5.29;82.90
20710;BME280;10516;51.518;9.864;2024-02-14T01:24:49;98873.75;;;5.12;83.64
20710;BME280;10516;51.518;9.864;2024-02-14T01:27:14;98884.00;;;5.33;84.13
20710;BME280;10516;51.518;9.864;2024-02-14T01:29:41;98860.78;;;5.04;83.79
20710;BME280;10516;51.518;9.864;2024-02-14T01:32:06;98887.78;;;5.44;84.17
20710;BME280;10516;51.518;9.864;2024-02-14T01:34:32;98857.16;;;5.30;83.38
20710;BME280;10516;51.518;9.864;2024-02-14T01:36:57;98841.38;;;4.79;84.16
20710;BME280;10516;51.518;9.864;2024-02-14T01:39:23;98880.84;;;5.50;84.00
20710;BME280;10516;51.518;9.864;2024-02-14T01:41:48;98864.72;;;5.20;84.12
20710;BME280;10516;51.518;9.864;2024-02-14T01:44:18;98871.75;;;5.39;83.16
20710;BME280;10516;51.518;9.864;2024-02-14T01:46:46;98836.13;;;4.73;83.82
20710;BME280;10516;51.518;9.864;2024-02-14T01:49:12;98868.13;;;4.58;85.18
20710;BME280;10516;51.518;9.864;2024-02-14T01:51:40;98867.06;;;4.66;85.50
20710;BME280;10516;51.518;9.864;2024-02-14T01:54:10;98827.84;;;4.63;86.25
20710;BME280;10516;51.518;9.864;2024-02-14T01:56:36;98855.16;;;4.88;86.68
20710;BME280;10516;51.518;9.864;2024-02-14T01:59:03;98858.84;;;5.18;85.69
20710;BME280;10516;51.518;9.864;2024-02-14T02:01:29;98822.69;;;5.37;84.89
20710;BME280;10516;51.518;9.864;2024-02-14T02:03:55;98809.13;;;5.02;84.46
20710;BME280;10516;51.518;9.864;2024-02-14T02:06:21;98838.69;;;5.23;84.59
20710;BME280;10516;51.518;9.864;2024-02-14T02:08:46;98839.03;;;5.27;85.18
20710;BME280;10516;51.518;9.864;2024-02-14T02:11:13;98799.50;;;5.07;85.22
20710;BME280;10516;51.518;9.864;2024-02-14T02:13:39;98749.22;;;4.51;85.08
20710;BME280;10516;51.518;9.864;2024-02-14T02:16:05;98825.91;;;5.14;84.86
20710;BME280;10516;51.518;9.864;2024-02-14T02:18:31;98841.00;;;5.38;85.65
20710;BME280;10516;51.518;9.864;2024-02-14T02:20:57;98775.41;;;4.91;84.73
20710;BME280;10516;51.518;9.864;2024-02-14T02:23:23;98828.63;;;5.01;84.97
20710;BME280;10516;51.518;9.864;2024-02-14T02:25:48;98838.72;;;5.17;85.47
20710;BME280;10516;51.518;9.864;2024-02-14T02:28:15;98812.25;;;4.86;85.20
20710;BME280;10516;51.518;9.864;2024-02-14T02:30:41;98781.34;;;4.86;85.73
20710;BME280;10516;51.518;9.864;2024-02-14T02:33:06;98840.72;;;5.21;84.61
20710;BME280;10516;51.518;9.864;2024-02-14T02:35:33;98802.44;;;5.24;85.50
20710;BME280;10516;51.518;9.864;2024-02-14T02:37:58;98830.25;;;5.58;84.55
20710;BME280;10516;51.518;9.864;2024-02-14T02:40:24;98834.31;;;5.36;84.38
20710;BME280;10516;51.518;9.864;2024-02-14T02:42:51;98833.72;;;5.33;85.97
20710;BME280;10516;51.518;9.864;2024-02-14T02:45:17;98768.44;;;4.96;85.31
20710;BME280;10516;51.518;9.864;2024-02-14T02:47:42;98782.56;;;5.15;84.87
20710;BME280;10516;51.518;9.864;2024-02-14T02:50:08;98824.72;;;5.59;84.27
20710;BME280;10516;51.518;9.864;2024-02-14T02:52:34;98823.72;;;5.60;84.26
20710;BME280;10516;51.518;9.864;2024-02-14T02:54:59;98769.16;;;5.10;85.40
20710;BME280;10516;51.518;9.864;2024-02-14T02:57:26;98761.66;;;5.07;85.13
20710;BME280;10516;51.518;9.864;2024-02-14T02:59:52;98753.31;;;5.10;85.56
20710;BME280;10516;51.518;9.864;2024-02-14T03:02:19;98802.50;;;5.42;85.50
20710;BME280;10516;51.518;9.864;2024-02-14T03:04:45;98803.78;;;5.58;84.76
20710;BME280;10516;51.518;9.864;2024-02-14T03:07:12;98771.28;;;5.26;85.02
20710;BME280;10516;51.518;9.864;2024-02-14T03:09:37;98799.69;;;5.37;84.38
20710;BME280;10516;51.518;9.864;2024-02-14T03:12:03;98792.97;;;5.59;84.57
20710;BME280;10516;51.518;9.864;2024-02-14T03:14:32;98756.06;;;5.21;84.65
20710;BME280;10516;51.518;9.864;2024-02-14T03:17:02;98780.34;;;5.61;84.49
20710;BME280;10516;51.518;9.864;2024-02-14T03:19:27;98778.31;;;5.39;84.76
20710;BME280;10516;51.518;9.864;2024-02-14T03:21:54;98788.72;;;5.58;84.53
20710;BME280;10516;51.518;9.864;2024-02-14T03:24:19;98773.97;;;5.44;84.87
20710;BME280;10516;51.518;9.864;2024-02-14T03:26:45;98787.31;;;5.56;84.86
20710;BME280;10516;51.518;9.864;2024-02-14T03:29:10;98786.94;;;5.52;84.64
20710;BME280;10516;51.518;9.864;2024-02-14T03:31:35;98791.38;;;5.58;85.40
20710;BME280;10516;51.518;9.864;2024-02-14T03:34:01;98784.19;;;5.65;84.64
20710;BME280;10516;51.518;9.864;2024-02-14T03:36:27;98785.81;;;5.42;84.38
20710;BME280;10516;51.518;9.864;2024-02-14T03:38:57;98753.19;;;5.23;85.19
20710;BME280;10516;51.518;9.864;2024-02-14T03:41:22;98777.72;;;5.61;84.52
20710;BME280;10516;51.518;9.864;2024-02-14T03:43:48;98792.66;;;5.49;84.77
20710;BME280;10516;51.518;9.864;2024-02-14T03:46:14;98741.38;;;5.25;85.17
20710;BME280;10516;51.518;9.864;2024-02-14T03:48:40;98772.47;;;5.55;84.80
20710;BME280;10516;51.518;9.864;2024-02-14T03:51:06;98757.50;;;5.42;85.01
20710;BME280;10516;51.518;9.864;2024-02-14T03:53:32;98786.88;;;5.59;84.99
20710;BME280;10516;51.518;9.864;2024-02-14T03:55:58;98758.44;;;5.29;84.51
20710;BME280;10516;51.518;9.864;2024-02-14T03:58:23;98752.78;;;5.26;85.41
20710;BME280;10516;51.518;9.864;2024-02-14T04:00:52;98776.94;;;5.54;85.73
20710;BME280;10516;51.518;9.864;2024-02-14T04:03:18;98783.72;;;5.50;85.78
20710;BME280;10516;51.518;9.864;2024-02-14T04:05:44;98751.97;;;5.25;85.87
20710;BME280;10516;51.518;9.864;2024-02-14T04:08:12;98763.13;;;5.27;85.95
20710;BME280;10516;51.518;9.864;2024-02-14T04:10:38;98767.00;;;5.50;85.95
20710;BME280;10516;51.518;9.864;2024-02-14T04:13:04;98768.53;;;5.39;85.92
20710;BME280;10516;51.518;9.864;2024-02-14T04:15:31;98690.94;;;4.96;85.52
20710;BME280;10516;51.518;9.864;2024-02-14T04:17:56;98735.91;;;5.20;85.65
20710;BME280;10516;51.518;9.864;2024-02-14T04:20:21;98748.84;;;5.35;85.96
20710;BME280;10516;51.518;9.864;2024-02-14T04:22:47;98766.91;;;5.38;85.76
20710;BME280;10516;51.518;9.864;2024-02-14T04:25:12;98772.97;;;5.45;86.41
20710;BME280;10516;51.518;9.864;2024-02-14T04:27:37;98705.56;;;4.98;85.87
20710;BME280;10516;51.518;9.864;2024-02-14T04:30:04;98773.06;;;5.32;86.75
20710;BME280;10516;51.518;9.864;2024-02-14T04:32:29;98771.97;;;5.40;87.41
20710;BME280;10516;51.518;9.864;2024-02-14T04:34:55;98738.78;;;5.19;87.22
20710;BME280;10516;51.518;9.864;2024-02-14T04:37:21;98767.25;;;5.48;86.85
20710;BME280;10516;51.518;9.864;2024-02-14T04:39:46;98760.50;;;5.27;87.49
20710;BME280;10516;51.518;9.864;2024-02-14T04:42:12;98652.66;;;4.80;87.89
20710;BME280;10516;51.518;9.864;2024-02-14T04:44:37;98746.31;;;5.40;87.69
20710;BME280;10516;51.518;9.864;2024-02-14T04:47:04;98741.59;;;5.24;87.95
20710;BME280;10516;51.518;9.864;2024-02-14T04:49:30;98754.72;;;5.37;88.71
20710;BME280;10516;51.518;9.864;2024-02-14T04:51:56;98732.44;;;5.20;88.51
20710;BME280;10516;51.518;9.864;2024-02-14T04:54:22;98728.78;;;5.21;89.08
20710;BME280;10516;51.518;9.864;2024-02-14T04:56:47;98728.63;;;5.16;88.32
20710;BME280;10516;51.518;9.864;2024-02-14T04:59:13;98760.84;;;5.31;88.16
20710;BME280;10516;51.518;9.864;2024-02-14T05:01:38;98725.66;;;5.06;88.42
20710;BME280;10516;51.518;9.864;2024-02-14T05:04:05;98729.22;;;5.18;87.86
20710;BME280;10516;51.518;9.864;2024-02-14T05:06:32;98700.56;;;4.90;88.89
20710;BME280;10516;51.518;9.864;2024-02-14T05:08:57;98737.69;;;5.26;88.27
20710;BME280;10516;51.518;9.864;2024-02-14T05:11:22;98752.00;;;5.19;88.80
20710;BME280;10516;51.518;9.864;2024-02-14T05:13:48;98755.63;;;5.24;88.09
20710;BME280;10516;51.518;9.864;2024-02-14T05:16:18;98757.63;;;5.29;87.17
20710;BME280;10516;51.518;9.864;2024-02-14T05:18:43;98759.72;;;5.20;88.09
20710;BME280;10516;51.518;9.864;2024-02-14T05:21:09;98733.91;;;5.16;87.76
20710;BME280;10516;51.518;9.864;2024-02-14T05:23:35;98738.78;;;5.19;88.25
20710;BME280;10516;51.518;9.864;2024-02-14T05:26:02;98741.00;;;5.22;87.88
20710;BME280;10516;51.518;9.864;2024-02-14T05:28:31;98752.97;;;5.24;87.79
20710;BME280;10516;51.518;9.864;2024-02-14T05:30:57;98752.78;;;5.44;87.83
20710;BME280;10516;51.518;9.864;2024-02-14T05:33:22;98757.78;;;5.34;87.58
20710;BME280;10516;51.518;9.864;2024-02-14T05:35:51;98749.91;;;5.27;88.48
20710;BME280;10516;51.518;9.864;2024-02-14T05:38:17;98745.56;;;5.33;88.69
20710;BME280;10516;51.518;9.864;2024-02-14T05:40:47;98748.66;;;5.30;88.66
20710;BME280;10516;51.518;9.864;2024-02-14T05:43:13;98748.66;;;5.30;89.04
20710;BME280;10516;51.518;9.864;2024-02-14T05:45:38;98747.03;;;5.29;88.67
20710;BME280;10516;51.518;9.864;2024-02-14T05:48:04;98744.38;;;5.29;88.23
20710;BME280;10516;51.518;9.864;2024-02-14T05:50:29;98723.19;;;5.11;88.96
20710;BME280;10516;51.518;9.864;2024-02-14T05:52:56;98750.31;;;5.24;87.72
20710;BME280;10516;51.518;9.864;2024-02-14T05:55:23;98760.19;;;5.36;87.98
20710;BME280;10516;51.518;9.864;2024-02-14T05:57:48;98708.63;;;5.02;88.38
20710;BME280;10516;51.518;9.864;2024-02-14T06:00:14;98757.56;;;5.36;88.45
20710;BME280;10516;51.518;9.864;2024-02-14T06:02:39;98723.50;;;5.21;87.51
20710;BME280;10516;51.518;9.864;2024-02-14T06:05:06;98747.69;;;5.24;88.22
20710;BME280;10516;51.518;9.864;2024-02-14T06:07:36;98737.09;;;5.24;87.85
20710;BME280;10516;51.518;9.864;2024-02-14T06:10:02;98766.47;;;5.41;87.68
20710;BME280;10516;51.518;9.864;2024-02-14T06:12:27;98766.53;;;5.35;87.86
20710;BME280;10516;51.518;9.864;2024-02-14T06:14:53;98749.53;;;5.24;88.43
20710;BME280;10516;51.518;9.864;2024-02-14T06:17:18;98749.53;;;5.24;88.56
20710;BME280;10516;51.518;9.864;2024-02-14T06:19:43;98752.59;;;5.21;88.28
20710;BME280;10516;51.518;9.864;2024-02-14T06:22:09;98732.13;;;5.10;88.45
20710;BME280;10516;51.518;9.864;2024-02-14T06:24:35;98766.03;;;5.44;88.06
20710;BME280;10516;51.518;9.864;2024-02-14T06:27:01;98733.66;;;5.24;88.29
20710;BME280;10516;51.518;9.864;2024-02-14T06:29:26;98754.25;;;5.40;87.92
20710;BME280;10516;51.518;9.864;2024-02-14T06:31:52;98742.63;;;5.23;87.85
20710;BME280;10516;51.518;9.864;2024-02-14T06:34:17;98750.19;;;5.19;88.45
20710;BME280;10516;51.518;9.864;2024-02-14T06:36:43;98781.50;;;5.47;88.70
20710;BME280;10516;51.518;9.864;2024-02-14T06:39:08;98764.97;;;5.27;89.05
20710;BME280;10516;51.518;9.864;2024-02-14T06:41:34;98783.38;;;5.40;89.19
20710;BME280;10516;51.518;9.864;2024-02-14T06:43:59;98762.72;;;5.30;88.66
20710;BME280;10516;51.518;9.864;2024-02-14T06:46:25;98790.59;;;5.51;88.70
20710;BME280;10516;51.518;9.864;2024-02-14T06:48:50;98784.13;;;5.47;88.31
20710;BME280;10516;51.518;9.864;2024-02-14T06:51:15;98772.03;;;5.33;88.97
20710;BME280;10516;51.518;9.864;2024-02-14T06:53:41;98799.09;;;5.60;88.33
20710;BME280;10516;51.518;9.864;2024-02-14T06:56:06;98779.84;;;5.46;88.85
20710;BME280;10516;51.518;9.864;2024-02-14T06:58:32;98793.41;;;5.56;88.54
20710;BME280;10516;51.518;9.864;2024-02-14T07:00:57;98802.91;;;5.64;89.06
20710;BME280;10516;51.518;9.864;2024-02-14T07:03:22;98790.25;;;5.48;88.24
20710;BME280;10516;51.518;9.864;2024-02-14T07:05:48;98821.38;;;5.70;88.13
20710;BME280;10516;51.518;9.864;2024-02-14T07:08:13;98797.72;;;5.51;88.45
20710;BME280;10516;51.518;9.864;2024-02-14T07:10:40;98799.47;;;5.39;89.30
20710;BME280;10516;51.518;9.864;2024-02-14T07:13:05;98812.66;;;5.45;89.75
20710;BME280;10516;51.518;9.864;2024-02-14T07:15:31;98807.97;;;5.47;89.66
20710;BME280;10516;51.518;9.864;2024-02-14T07:17:56;98800.97;;;5.53;89.24
20710;BME280;10516;51.518;9.864;2024-02-14T07:20:24;98814.91;;;5.66;88.63
20710;BME280;10516;51.518;9.864;2024-02-14T07:22:51;98817.56;;;5.66;88.26
20710;BME280;10516;51.518;9.864;2024-02-14T07:25:19;98794.94;;;5.46;88.92
20710;BME280;10516;51.518;9.864;2024-02-14T07:27:44;98822.59;;;5.50;89.18
20710;BME280;10516;51.518;9.864;2024-02-14T07:30:11;98801.03;;;5.46;89.22
20710;BME280;10516;51.518;9.864;2024-02-14T07:32:37;98812.97;;;5.55;89.89
20710;BME280;10516;51.518;9.864;2024-02-14T07:35:03;98804.28;;;5.48;90.07
20710;BME280;10516;51.518;9.864;2024-02-14T07:37:30;98793.31;;;5.45;90.25
20710;BME280;10516;51.518;9.864;2024-02-14T07:39:56;98808.13;;;5.52;90.43
20710;BME280;10516;51.518;9.864;2024-02-14T07:42:21;98817.19;;;5.63;90.84
20710;BME280;10516;51.518;9.864;2024-02-14T07:44:47;98817.34;;;5.68;90.30
20710;BME280;10516;51.518;9.864;2024-02-14T07:47:12;98802.72;;;5.65;89.98
20710;BME280;10516;51.518;9.864;2024-02-14T07:49:39;98815.72;;;5.67;90.31
20710;BME280;10516;51.518;9.864;2024-02-14T07:52:05;98800.25;;;5.64;90.11
20710;BME280;10516;51.518;9.864;2024-02-14T07:54:30;98795.91;;;5.51;90.23
20710;BME280;10516;51.518;9.864;2024-02-14T07:56:56;98809.72;;;5.78;89.72
20710;BME280;10516;51.518;9.864;2024-02-14T07:59:21;98803.59;;;5.77;89.72
20710;BME280;10516;51.518;9.864;2024-02-14T08:01:46;98802.06;;;5.70;89.69
20710;BME280;10516;51.518;9.864;2024-02-14T08:04:12;98796.38;;;5.66;89.76
20710;BME280;10516;51.518;9.864;2024-02-14T08:06:37;98835.88;;;5.92;89.67
20710;BME280;10516;51.518;9.864;2024-02-14T08:09:03;98811.13;;;5.80;89.82
20710;BME280;10516;51.518;9.864;2024-02-14T08:11:31;98825.44;;;5.97;89.88
20710;BME280;10516;51.518;9.864;2024-02-14T08:13:57;98801.91;;;5.89;89.71
20710;BME280;10516;51.518;9.864;2024-02-14T08:16:23;98818.38;;;6.10;89.21
20710;BME280;10516;51.518;9.864;2024-02-14T08:18:49;98822.66;;;6.11;89.14
20710;BME280;10516;51.518;9.864;2024-02-14T08:21:16;98831.41;;;6.11;89.83
20710;BME280;10516;51.518;9.864;2024-02-14T08:23:41;98822.13;;;6.02;89.84
20710;BME280;10516;51.518;9.864;2024-02-14T08:26:08;98834.34;;;6.03;89.93
20710;BME280;10516;51.518;9.864;2024-02-14T08:28:38;98841.44;;;6.09;89.82
20710;BME280;10516;51.518;9.864;2024-02-14T08:31:10;98819.72;;;6.00;90.69
20710;BME280;10516;51.518;9.864;2024-02-14T08:33:36;98836.78;;;6.23;89.53
20710;BME280;10516;51.518;9.864;2024-02-14T08:36:03;98832.94;;;6.19;89.47
20710;BME280;10516;51.518;9.864;2024-02-14T08:38:28;98835.34;;;6.27;89.71
20710;BME280;10516;51.518;9.864;2024-02-14T08:40:53;98829.72;;;6.17;90.05
20710;BME280;10516;51.518;9.864;2024-02-14T08:43:19;98833.34;;;6.22;89.91
20710;BME280;10516;51.518;9.864;2024-02-14T08:45:45;98832.00;;;6.31;90.09
20710;BME280;10516;51.518;9.864;2024-02-14T08:48:10;98832.59;;;6.33;89.91
20710;BME280;10516;51.518;9.864;2024-02-14T08:50:35;98835.53;;;6.43;89.51
20710;BME280;10516;51.518;9.864;2024-02-14T08:53:01;98816.00;;;6.38;89.58
20710;BME280;10516;51.518;9.864;2024-02-14T08:55:26;98830.16;;;6.50;89.29
20710;BME280;10516;51.518;9.864;2024-02-14T08:57:52;98851.38;;;6.50;90.57
20710;BME280;10516;51.518;9.864;2024-02-14T09:00:18;98836.78;;;6.41;90.08
20710;BME280;10516;51.518;9.864;2024-02-14T09:02:47;98844.72;;;6.59;90.16
20710;BME280;10516;51.518;9.864;2024-02-14T09:05:13;98829.56;;;6.48;89.92
20710;BME280;10516;51.518;9.864;2024-02-14T09:07:38;98849.72;;;6.67;90.20
20710;BME280;10516;51.518;9.864;2024-02-14T09:10:04;98837.69;;;6.53;90.03
20710;BME280;10516;51.518;9.864;2024-02-14T09:12:31;98850.28;;;6.57;90.26
20710;BME280;10516;51.518;9.864;2024-02-14T09:14:57;98845.97;;;6.56;90.65
20710;BME280;10516;51.518;9.864;2024-02-14T09:17:23;98851.63;;;6.60;90.15
20710;BME280;10516;51.518;9.864;2024-02-14T09:19:48;98861.72;;;6.69;89.87
20710;BME280;10516;51.518;9.864;2024-02-14T09:22:13;98855.31;;;6.77;90.32
20710;BME280;10516;51.518;9.864;2024-02-14T09:24:43;98863.94;;;6.72;90.25
20710;BME280;10516;51.518;9.864;2024-02-14T09:27:09;98868.59;;;6.77;91.01
20710;BME280;10516;51.518;9.864;2024-02-14T09:29:34;98850.78;;;6.66;90.45
20710;BME280;10516;51.518;9.864;2024-02-14T09:32:02;98829.50;;;6.54;90.21
20710;BME280;10516;51.518;9.864;2024-02-14T09:34:29;98846.09;;;6.79;89.65
20710;BME280;10516;51.518;9.864;2024-02-14T09:36:54;98865.16;;;6.88;89.74
20710;BME280;10516;51.518;9.864;2024-02-14T09:39:21;98838.44;;;6.71;89.61
20710;BME280;10516;51.518;9.864;2024-02-14T09:41:51;98862.03;;;7.09;89.02
20710;BME280;10516;51.518;9.864;2024-02-14T09:44:20;98864.97;;;7.01;88.77
20710;BME280;10516;51.518;9.864;2024-02-14T09:46:47;98864.78;;;7.03;89.32
20710;BME280;10516;51.518;9.864;2024-02-14T09:49:14;98864.78;;;7.03;89.63
20710;BME280;10516;51.518;9.864;2024-02-14T09:51:42;98840.69;;;6.86;90.51
20710;BME280;10516;51.518;9.864;2024-02-14T09:54:10;98863.38;;;7.00;90.01
20710;BME280;10516;51.518;9.864;2024-02-14T09:56:36;98856.09;;;6.96;89.85
20710;BME280;10516;51.518;9.864;2024-02-14T09:59:02;98860.47;;;6.90;90.02
20710;BME280;10516;51.518;9.864;2024-02-14T10:01:28;98854.91;;;6.92;90.59
20710;BME280;10516;51.518;9.864;2024-02-14T10:03:54;98827.84;;;6.71;91.09
20710;BME280;10516;51.518;9.864;2024-02-14T10:06:20;98855.56;;;7.05;90.78
20710;BME280;10516;51.518;9.864;2024-02-14T10:08:50;98818.78;;;6.79;90.69
20710;BME280;10516;51.518;9.864;2024-02-14T10:11:17;98857.16;;;7.06;89.98
20710;BME280;10516;51.518;9.864;2024-02-14T10:13:46;98838.34;;;7.08;89.45
20710;BME280;10516;51.518;9.864;2024-02-14T10:16:12;98873.19;;;7.29;88.53
20710;BME280;10516;51.518;9.864;2024-02-14T10:18:38;98866.38;;;7.33;88.72
20710;BME280;10516;51.518;9.864;2024-02-14T10:21:04;98829.13;;;6.99;89.43
20710;BME280;10516;51.518;9.864;2024-02-14T10:23:30;98859.75;;;7.24;89.41
20710;BME280;10516;51.518;9.864;2024-02-14T10:25:56;98865.66;;;7.26;89.02
20710;BME280;10516;51.518;9.864;2024-02-14T10:28:22;98854.69;;;7.23;89.63
20710;BME280;10516;51.518;9.864;2024-02-14T10:30:49;98847.13;;;7.08;89.34
20710;BME280;10516;51.518;9.864;2024-02-14T10:33:17;98898.22;;;7.33;89.43
20710;BME280;10516;51.518;9.864;2024-02-14T10:35:44;98866.25;;;7.28;89.74
20710;BME280;10516;51.518;9.864;2024-02-14T10:38:11;98908.28;;;7.43;89.28
20710;BME280;10516;51.518;9.864;2024-02-14T10:40:37;98881.25;;;7.34;89.91
20710;BME280;10516;51.518;9.864;2024-02-14T10:43:06;98906.78;;;7.47;89.45
20710;BME280;10516;51.518;9.864;2024-02-14T10:45:35;98901.00;;;7.38;89.83
20710;BME280;10516;51.518;9.864;2024-02-14T10:48:01;98895.47;;;7.40;89.78
20710;BME280;10516;51.518;9.864;2024-02-14T10:50:32;98912.19;;;7.40;90.20
20710;BME280;10516;51.518;9.864;2024-02-14T10:53:00;98911.91;;;7.48;89.87
20710;BME280;10516;51.518;9.864;2024-02-14T10:55:30;98912.56;;;7.44;90.73
20710;BME280;10516;51.518;9.864;2024-02-14T10:57:57;98895.00;;;7.31;91.33
20710;BME280;10516;51.518;9.864;2024-02-14T11:00:22;98916.94;;;7.38;91.71
20710;BME280;10516;51.518;9.864;2024-02-14T11:02:48;98912.66;;;7.37;91.14
20710;BME280;10516;51.518;9.864;2024-02-14T11:05:15;98895.09;;;7.36;90.76
20710;BME280;10516;51.518;9.864;2024-02-14T11:07:45;98911.31;;;7.46;91.09
20710;BME280;10516;51.518;9.864;2024-02-14T11:10:16;98910.16;;;7.54;90.57
20710;BME280;10516;51.518;9.864;2024-02-14T11:12:42;98885.16;;;7.32;91.52
20710;BME280;10516;51.518;9.864;2024-02-14T11:15:20;98910.25;;;7.47;91.19
20710;BME280;10516;51.518;9.864;2024-02-14T11:17:47;98924.69;;;7.51;90.96
20710;BME280;10516;51.518;9.864;2024-02-14T11:20:21;98891.56;;;7.42;91.56
20710;BME280;10516;51.518;9.864;2024-02-14T11:22:56;98914.31;;;7.50;92.07
20710;BME280;10516;51.518;9.864;2024-02-14T11:25:29;98892.59;;;7.41;91.93
20710;BME280;10516;51.518;9.864;2024-02-14T11:27:57;98921.25;;;7.51;91.50
20710;BME280;10516;51.518;9.864;2024-02-14T11:30:30;98916.16;;;7.49;92.16
20710;BME280;10516;51.518;9.864;2024-02-14T11:33:22;98923.91;;;7.51;92.33
20710;BME280;10516;51.518;9.864;2024-02-14T11:35:53;98888.56;;;7.50;91.25
20710;BME280;10516;51.518;9.864;2024-02-14T11:38:19;98911.69;;;7.62;90.69
20710;BME280;10516;51.518;9.864;2024-02-14T11:40:45;98903.25;;;7.65;91.89
20710;BME280;10516;51.518;9.864;2024-02-14T11:43:16;98898.66;;;7.72;89.85
20710;BME280;10516;51.518;9.864;2024-02-14T11:45:46;98913.22;;;7.81;91.20
20710;BME280;10516;51.518;9.864;2024-02-14T11:48:14;98914.38;;;7.85;90.91
20710;BME280;10516;51.518;9.864;2024-02-14T11:50:41;98918.44;;;7.87;91.02
20710;BME280;10516;51.518;9.864;2024-02-14T11:53:09;98912.69;;;7.90;91.00
20710;BME280;10516;51.518;9.864;2024-02-14T11:55:37;98893.59;;;7.82;91.44
20710;BME280;10516;51.518;9.864;2024-02-14T11:58:16;98898.13;;;7.93;91.15
20710;BME280;10516;51.518;9.864;2024-02-14T12:00:43;98905.19;;;7.99;90.19
20710;BME280;10516;51.518;9.864;2024-02-14T12:03:12;98911.88;;;8.01;90.79
20710;BME280;10516;51.518;9.864;2024-02-14T12:05:38;98898.94;;;8.05;90.11
20710;BME280;10516;51.518;9.864;2024-02-14T12:08:07;98893.16;;;8.08;90.18
20710;BME280;10516;51.518;9.864;2024-02-14T12:10:34;98894.09;;;8.25;88.78
20710;BME280;10516;51.518;9.864;2024-02-14T12:13:10;98899.84;;;8.22;89.25
20710;BME280;10516;51.518;9.864;2024-02-14T12:15:51;98912.94;;;8.47;88.36
20710;BME280;10516;51.518;9.864;2024-02-14T12:18:18;98914.91;;;8.51;88.24
20710;BME280;10516;51.518;9.864;2024-02-14T12:20:43;98911.53;;;8.32;88.53
20710;BME280;10516;51.518;9.864;2024-02-14T12:23:14;98890.47;;;8.19;87.89
20710;BME280;10516;51.518;9.864;2024-02-14T12:25:40;98904.59;;;8.43;88.37
20710;BME280;10516;51.518;9.864;2024-02-14T12:28:06;98907.03;;;8.33;88.68
20710;BME280;10516;51.518;9.864;2024-02-14T12:30:51;98914.69;;;8.29;88.54
20710;BME280;10516;51.518;9.864;2024-02-14T12:33:26;98936.63;;;8.25;88.72
20710;BME280;10516;51.518;9.864;2024-02-14T12:35:56;98907.94;;;8.15;88.80
20710;BME280;10516;51.518;9.864;2024-02-14T12:38:23;98891.66;;;8.12;88.61
20710;BME280;10516;51.518;9.864;2024-02-14T12:40:49;98913.84;;;8.17;88.90
20710;BME280;10516;51.518;9.864;2024-02-14T12:43:15;98901.47;;;8.23;89.47
20710;BME280;10516;51.518;9.864;2024-02-14T12:45:41;98900.34;;;8.19;88.96
20710;BME280;10516;51.518;9.864;2024-02-14T12:48:08;98915.72;;;8.28;88.66
20710;BME280;10516;51.518;9.864;2024-02-14T12:50:34;98877.69;;;8.16;89.00
20710;BME280;10516;51.518;9.864;2024-02-14T12:53:00;98918.50;;;8.34;89.44
20710;BME280;10516;51.518;9.864;2024-02-14T12:55:26;98926.25;;;8.47;88.91
20710;BME280;10516;51.518;9.864;2024-02-14T12:57:54;98891.91;;;8.34;88.84
20710;BME280;10516;51.518;9.864;2024-02-14T13:00:19;98884.47;;;8.24;88.87
20710;BME280;10516;51.518;9.864;2024-02-14T13:02:47;98911.06;;;8.59;87.87
20710;BME280;10516;51.518;9.864;2024-02-14T13:05:13;98911.75;;;8.54;88.44
20710;BME280;10516;51.518;9.864;2024-02-14T13:07:38;98908.44;;;8.47;87.87